Time;durP1;ratioP1;P1;durP2;ratioP2;P2;SDS_P1;SDS_P2;PMS_P1;PMS_P2;Temp;Humidity;BMP_temperature;BMP_pressure;BME280_temperature;BME280_humidity;BME280_pressure;Samples;Min_cycle;Max_cycle;Signal;HPM_P1;HPM_P2
2022/03/09 00:00:43;;;;;;;;;99.33;72.33;;;;;-2.25;67.87;100050.00;6307450;20;3660634;-55
2022/03/09 00:03:14;;;;;;;;;93.00;69.00;;;;;-1.67;66.51;100057.63;6311967;20;3636927;-53
2022/03/09 00:05:44;;;;;;;;;95.67;71.33;;;;;-1.15;64.25;100054.63;6309844;20;2906686;-52
2022/03/09 00:08:13;;;;;;;;;97.33;70.33;;;;;-1.33;64.38;100053.00;6309674;20;3657544;-51
2022/03/09 00:10:43;;;;;;;;;94.00;70.67;;;;;-1.44;65.10;100064.50;6309774;20;3655489;-48
2022/03/09 00:13:12;;;;;;;;;79.00;61.50;;;;;-0.96;63.19;100062.38;6312601;20;2885690;-46
2022/03/09 00:15:40;;;;;;;;;79.00;61.00;;;;;-1.21;64.02;100075.75;6277183;20;2500258;-45
2022/03/09 00:18:09;;;;;;;;;90.67;65.33;;;;;-1.19;64.62;100073.09;6279311;20;2907704;-46
2022/03/09 00:20:39;;;;;;;;;105.67;71.67;;;;;-2.06;65.87;100070.09;6305540;20;3675266;-44
2022/03/09 00:23:09;;;;;;;;;95.00;67.67;;;;;-2.09;66.04;100075.38;6307760;20;3670046;-44
2022/03/09 00:25:38;;;;;;;;;84.00;60.00;;;;;-2.02;66.19;100077.09;6311516;20;2705497;-44
2022/03/09 00:28:07;;;;;;;;;45.50;41.50;;;;;-1.80;65.10;100077.00;6310337;20;2864870;-43
2022/03/09 00:30:36;;;;;;;;;52.00;39.00;;;;;-1.30;63.25;100072.31;6277272;20;2878442;-43
2022/03/09 00:33:04;;;;;;;;;53.00;43.00;;;;;-0.98;62.46;100064.16;6305381;20;2500681;-45
2022/03/09 00:35:32;;;;;;;;;51.50;39.00;;;;;-0.85;61.87;100078.97;6276212;20;2500450;-49
2022/03/09 00:38:00;;;;;;;;;52.00;40.00;;;;;-1.02;61.82;100075.63;6274595;20;2500271;-47
2022/03/09 00:40:28;;;;;;;;;50.50;37.50;;;;;-0.81;61.28;100066.66;6274166;20;2500283;-43
2022/03/09 00:42:57;;;;;;;;;49.67;41.33;;;;;-0.57;60.74;100065.53;6277079;20;3612876;-45
2022/03/09 00:45:25;;;;;;;;;50.00;37.50;;;;;-0.76;60.74;100054.31;6275957;20;2500391;-43
2022/03/09 00:47:53;;;;;;;;;46.00;37.00;;;;;-0.55;60.07;100055.84;6273404;20;2500293;-43
2022/03/09 00:50:21;;;;;;;;;44.00;34.50;;;;;-0.18;59.17;100051.03;6272105;20;2500276;-43
2022/03/09 00:52:49;;;;;;;;;51.50;40.50;;;;;-0.16;59.57;100056.28;6274417;20;2500269;-43
2022/03/09 00:55:17;;;;;;;;;45.00;40.50;;;;;-0.60;60.74;100055.03;6276154;20;2502502;-46
2022/03/09 00:57:44;;;;;;;;;54.50;40.50;;;;;-0.45;60.82;100060.09;6273432;20;2500251;-44
2022/03/09 01:00:15;;;;;;;;;51.67;42.00;;;;;-0.58;61.16;100064.66;6275080;20;2881662;-43
2022/03/09 01:02:46;;;;;;;;;65.00;47.50;;;;;-0.29;60.31;100060.81;6309591;20;2852382;-43
2022/03/09 01:05:15;;;;;;;;;68.33;49.67;;;;;-0.26;60.11;100059.03;6278743;20;2894166;-43
2022/03/09 01:07:44;;;;;;;;;71.00;54.00;;;;;-0.10;59.43;100061.50;6307606;20;2869154;-43
2022/03/09 01:10:15;;;;;;;;;60.50;44.67;;;;;0.05;59.14;100065.69;6297025;20;3612071;-45
2022/03/09 01:12:45;;;;;;;;;71.00;54.00;;;;;0.11;58.94;100071.78;6306814;20;2500272;-44
2022/03/09 01:15:13;;;;;;;;;73.00;57.00;;;;;0.13;59.09;100062.09;6271323;20;2500264;-46
2022/03/09 01:17:46;;;;;;;;;77.00;56.50;;;;;-0.24;59.57;100066.91;6275987;20;2890871;-45
2022/03/09 01:20:15;;;;;;;;;67.00;54.00;;;;;-0.20;60.81;100063.34;6274039;20;2500265;-47
2022/03/09 01:22:45;;;;;;;;;69.00;55.00;;;;;-0.40;61.65;100065.34;6276036;20;2500279;-44
2022/03/09 01:25:14;;;;;;;;;81.00;63.50;;;;;-0.38;60.93;100068.84;6277397;20;2883826;-45
2022/03/09 01:27:42;;;;;;;;;73.00;54.00;;;;;-0.83;64.17;100069.28;6270933;20;2487760;-45
2022/03/09 01:30:11;;;;;;;;;67.00;52.00;;;;;-0.99;64.07;100065.91;6272442;20;2874353;-44
2022/03/09 01:32:40;;;;;;;;;63.50;47.00;;;;;-0.92;64.83;100064.13;6307625;20;2854440;-43
2022/03/09 01:35:10;;;;;;;;;57.33;44.67;;;;;-1.08;65.42;100070.38;6274078;20;2877556;-42
2022/03/09 01:37:38;;;;;;;;;66.00;47.00;;;;;-0.80;64.42;100068.38;6303059;20;2508671;-43
2022/03/09 01:40:08;;;;;;;;;61.50;47.00;;;;;-0.86;65.47;100073.72;6275858;20;2857577;-42
2022/03/09 01:42:37;;;;;;;;;66.00;50.00;;;;;-0.68;64.20;100082.31;6278371;20;3607533;-43
2022/03/09 01:45:09;;;;;;;;;71.00;53.00;;;;;-0.57;63.74;100076.06;6274918;20;2499216;-44
2022/03/09 01:47:38;;;;;;;;;67.50;49.00;;;;;-0.33;62.57;100086.38;6273469;20;2489862;-43
2022/03/09 01:50:11;;;;;;;;;63.00;51.00;;;;;-0.33;62.15;100075.81;6276954;20;2859707;-43
2022/03/09 01:52:43;;;;;;;;;71.00;50.50;;;;;-0.02;61.01;100070.19;6274510;20;2863817;-43
2022/03/09 01:55:12;;;;;;;;;72.50;54.00;;;;;0.09;60.33;100065.63;6275437;20;2499242;-43
2022/03/09 01:57:41;;;;;;;;;64.00;50.00;;;;;0.04;60.20;100064.81;6272865;20;2497154;-43
2022/03/09 02:00:12;;;;;;;;;64.00;50.00;;;;;-0.12;60.62;100068.53;6274778;20;2860703;-42
2022/03/09 02:02:40;;;;;;;;;68.00;54.00;;;;;0.14;60.64;100066.44;6274662;20;2487892;-42
2022/03/09 02:05:09;;;;;;;;;68.00;50.50;;;;;0.26;60.24;100059.25;6272631;20;2468035;-44
2022/03/09 02:10:24;;;;;;;;;66.50;54.00;;;;;0.21;60.31;100062.84;6273311;20;2499258;-44
2022/03/09 02:12:52;;;;;;;;;66.50;51.00;;;;;-0.13;60.73;100072.06;6277917;20;2866903;-43
2022/03/09 02:15:20;;;;;;;;;55.00;47.00;;;;;-0.14;61.94;100072.97;6271971;20;2497121;-43
2022/03/09 02:17:48;;;;;;;;;65.00;51.00;;;;;0.03;61.52;100081.56;6276108;20;2864935;-42
2022/03/09 02:20:17;;;;;;;;;68.50;51.00;;;;;0.04;61.40;100067.47;6273910;20;2867958;-43
2022/03/09 02:22:46;;;;;;;;;66.00;49.00;;;;;-0.54;62.67;100066.38;6276958;20;2865902;-42
2022/03/09 02:25:16;;;;;;;;;64.00;45.50;;;;;0.02;61.97;100066.59;6274405;20;2879814;-44
2022/03/09 02:27:47;;;;;;;;;38.33;21.67;;;;;-0.15;62.04;100068.59;6272766;20;3557511;-43
2022/03/09 02:30:19;;;;;;;;;61.00;47.00;;;;;-0.13;62.03;100064.13;6305718;20;2880452;-43
2022/03/09 02:32:50;;;;;;;;;57.00;45.00;;;;;-0.03;61.71;100055.22;6271369;20;2508571;-42
2022/03/09 02:35:20;;;;;;;;;59.00;47.00;;;;;0.01;61.34;100054.31;6277346;20;2877765;-43
2022/03/09 02:37:49;;;;;;;;;63.00;46.50;;;;;0.19;60.74;100051.44;6271280;20;2867031;-42
2022/03/09 02:40:18;;;;;;;;;62.50;48.00;;;;;0.41;59.61;100059.03;6275005;20;2868038;-43
2022/03/09 02:42:47;;;;;;;;;62.00;47.00;;;;;0.18;60.25;100060.22;6274542;20;2860760;-42
2022/03/09 02:45:15;;;;;;;;;60.50;48.50;;;;;0.55;59.39;100061.47;6272135;20;2487776;-44
2022/03/09 02:47:45;;;;;;;;;61.00;50.00;;;;;0.32;59.98;100064.47;6270231;20;2508633;-42
2022/03/09 02:50:16;;;;;;;;;53.33;39.00;;;;;0.53;59.41;100058.88;6272825;20;3624200;-42
2022/03/09 02:52:45;;;;;;;;;58.50;46.50;;;;;0.87;58.00;100051.31;6306644;20;2869465;-42
2022/03/09 02:55:15;;;;;;;;;59.50;45.50;;;;;0.57;58.90;100054.41;6273667;20;2874212;-42
2022/03/09 02:57:44;;;;;;;;;52.00;46.00;;;;;0.45;58.97;100055.47;6276310;20;2863907;-44
2022/03/09 03:00:13;;;;;;;;;65.00;51.00;;;;;0.40;60.31;100059.94;6270525;20;2870057;-45
2022/03/09 03:02:42;;;;;;;;;64.50;50.00;;;;;0.19;60.36;100046.16;6269288;20;2869128;-42
2022/03/09 03:05:11;;;;;;;;;69.00;49.00;;;;;0.29;60.52;100048.66;6264608;20;2508615;-43
2022/03/09 03:07:39;;;;;;;;;58.00;44.00;;;;;0.22;61.45;100058.44;6268186;20;2498230;-46
2022/03/09 03:10:08;;;;;;;;;57.00;47.00;;;;;0.15;61.77;100068.19;6266033;20;2508621;-44
2022/03/09 03:12:36;;;;;;;;;67.50;48.00;;;;;0.02;62.45;100066.59;6270001;20;2487937;-44
2022/03/09 03:15:05;;;;;;;;;78.00;56.00;;;;;0.12;62.35;100062.09;6274607;20;2500333;-45
2022/03/09 03:17:38;;;;;;;;;68.00;52.50;;;;;0.16;62.79;100054.13;6278618;20;2496105;-42
2022/03/09 03:20:08;;;;;;;;;72.00;55.00;;;;;-0.26;63.25;100056.41;6281034;20;2874347;-43
2022/03/09 03:22:36;;;;;;;;;59.00;47.67;;;;;-0.09;64.18;100052.66;6280863;20;2872175;-42
2022/03/09 03:25:05;;;;;;;;;63.50;49.50;;;;;-0.34;64.63;100060.88;6308503;20;2508583;-43
2022/03/09 03:27:33;;;;;;;;;62.00;50.00;;;;;0.13;63.16;100061.19;6278944;20;2504428;-43
2022/03/09 03:30:01;;;;;;;;;66.00;50.50;;;;;0.19;61.55;100059.34;6277088;20;2487795;-43
2022/03/09 03:32:29;;;;;;;;;73.00;57.00;;;;;0.23;62.08;100054.88;6276483;20;2500304;-43
2022/03/09 03:34:58;;;;;;;;;77.50;61.50;;;;;-0.02;62.49;100064.91;6280620;20;2868845;-45
2022/03/09 03:37:27;;;;;;;;;82.33;61.67;;;;;-0.23;63.97;100066.03;6279767;20;3626281;-42
2022/03/09 03:39:57;;;;;;;;;78.00;58.33;;;;;-0.07;64.47;100058.81;6311586;20;2892003;-43
2022/03/09 03:42:26;;;;;;;;;65.00;45.33;;;;;-0.05;63.69;100057.03;6312043;20;3654457;-41
2022/03/09 03:44:54;;;;;;;;;63.00;51.00;;;;;0.30;62.41;100047.78;6310489;20;2496145;-42
2022/03/09 03:47:23;;;;;;;;;68.00;51.00;;;;;0.14;62.34;100037.41;6279477;20;2873157;-43
2022/03/09 03:49:51;;;;;;;;;53.50;47.00;;;;;-0.02;63.06;100038.50;6275904;20;2473180;-42
2022/03/09 03:52:20;;;;;;;;;62.50;48.00;;;;;0.08;63.27;100037.50;6281748;20;2876384;-43
2022/03/09 03:54:49;;;;;;;;;50.00;42.50;;;;;0.30;62.17;100040.72;6280567;20;2863805;-43
2022/03/09 03:57:18;;;;;;;;;52.00;45.00;;;;;0.07;62.58;100040.16;6278489;20;2863911;-44
2022/03/09 03:59:46;;;;;;;;;49.00;43.50;;;;;-0.19;63.87;100045.75;6278917;20;2860658;-44
2022/03/09 04:02:14;;;;;;;;;58.00;47.00;;;;;0.08;63.31;100044.53;6278720;20;2497146;-44
2022/03/09 04:04:42;;;;;;;;;76.00;56.00;;;;;-0.25;64.71;100050.22;6277959;20;2499354;-42
2022/03/09 04:07:10;;;;;;;;;63.00;51.50;;;;;-0.34;64.61;100039.78;6279922;20;2864991;-44
2022/03/09 04:09:39;;;;;;;;;76.00;58.50;;;;;-0.40;65.27;100033.69;6276661;20;2883674;-44
2022/03/09 04:12:08;;;;;;;;;66.50;53.50;;;;;-0.29;65.24;100035.31;6272655;20;2500281;-42
2022/03/09 04:14:38;;;;;;;;;80.00;58.67;;;;;-0.10;63.67;100035.09;6278760;20;2893026;-46
2022/03/09 04:17:08;;;;;;;;;85.00;57.00;;;;;-0.70;66.34;100034.00;6308611;20;2889581;-46
2022/03/09 04:19:37;;;;;;;;;72.50;58.50;;;;;-0.55;66.66;100029.47;6278134;20;2875279;-46
2022/03/09 04:22:06;;;;;;;;;70.50;56.00;;;;;-0.64;67.41;100026.91;6277636;20;2864887;-45
2022/03/09 04:24:34;;;;;;;;;66.00;52.00;;;;;-0.35;66.51;100029.22;6278348;20;2500286;-44
2022/03/09 04:27:03;;;;;;;;;36.50;36.50;;;;;-0.07;64.79;100019.22;6279317;20;2854443;-44
2022/03/09 04:29:33;;;;;;;;;59.50;46.00;;;;;-0.03;64.22;100026.19;6277892;20;2879809;-45
2022/03/09 04:32:00;;;;;;;;;50.00;45.00;;;;;0.01;63.89;100021.75;6277265;20;2508784;-44
2022/03/09 04:34:30;;;;;;;;;50.50;37.00;;;;;0.09;63.45;100020.75;6279741;20;2873219;-44
2022/03/09 04:36:59;;;;;;;;;61.00;43.00;;;;;-0.62;65.71;100031.28;6278157;20;2874199;-46
2022/03/09 04:39:26;;;;;;;;;58.50;46.00;;;;;-0.35;66.04;100029.22;6276541;20;2508690;-47
2022/03/09 04:41:55;;;;;;;;;63.00;49.00;;;;;-0.36;65.85;100028.38;6280420;20;2858585;-46
2022/03/09 04:44:23;;;;;;;;;62.00;50.50;;;;;-0.07;64.86;100020.09;6278099;20;2868024;-44
2022/03/09 04:46:51;;;;;;;;;66.00;50.00;;;;;0.25;63.71;100020.56;6275604;20;2498197;-46
2022/03/09 04:49:19;;;;;;;;;64.00;50.00;;;;;-0.26;64.60;100021.22;6273724;20;2492403;-44
2022/03/09 04:51:54;;;;;;;;;57.00;48.67;;;;;-0.38;66.22;100029.28;6279042;20;3593980;-44
2022/03/09 04:54:23;;;;;;;;;65.50;51.00;;;;;-0.29;66.05;100023.88;6277606;20;2873152;-45
2022/03/09 04:56:52;;;;;;;;;65.00;49.33;;;;;-0.10;65.42;100027.19;6279354;20;2888813;-45
2022/03/09 04:59:21;;;;;;;;;76.00;53.00;;;;;-0.18;64.56;100027.28;6309547;20;2879617;-46
2022/03/09 05:01:50;;;;;;;;;79.50;59.00;;;;;-0.36;65.45;100023.09;6276056;20;2887961;-44
2022/03/09 05:04:18;;;;;;;;;66.00;51.50;;;;;-0.35;66.48;100023.97;6273842;20;2496097;-46
2022/03/09 05:06:46;;;;;;;;;74.00;55.00;;;;;-0.52;66.60;100032.06;6273365;20;2497132;-50
2022/03/09 05:09:14;;;;;;;;;66.00;47.00;;;;;-0.62;68.22;100040.97;6276758;20;2503394;-46
2022/03/09 05:11:46;;;;;;;;;60.00;47.67;;;;;-0.77;68.47;100042.84;6276607;20;3582531;-44
2022/03/09 05:14:14;;;;;;;;;61.50;48.50;;;;;-0.60;67.81;100034.78;6277909;20;2868988;-44
2022/03/09 05:16:44;;;;;;;;;70.33;45.33;;;;;-0.21;66.09;100040.50;6279161;20;2904566;-53
2022/03/09 05:19:13;;;;;;;;;58.00;44.00;;;;;-0.16;65.21;100036.03;6307674;20;2875347;-42
2022/03/09 05:21:41;;;;;;;;;63.00;48.50;;;;;-0.45;66.73;100039.00;6276078;20;2508773;-44
2022/03/09 05:24:31;;;;;;;;;62.50;48.00;;;;;-0.38;66.78;100037.19;6279207;20;2871153;-45
2022/03/09 05:27:00;;;;;;;;;88.67;63.00;;;;;-0.36;66.43;100038.91;6277144;20;3658608;-44
2022/03/09 05:29:28;;;;;;;;;83.00;64.00;;;;;-0.27;66.09;100035.28;6305357;20;2500240;-46
2022/03/09 05:31:58;;;;;;;;;83.00;62.67;;;;;0.10;64.33;100026.91;6275431;20;2890075;-46
2022/03/09 05:34:28;;;;;;;;;95.67;71.67;;;;;0.68;61.30;100030.47;6306090;20;3657531;-44
2022/03/09 05:36:57;;;;;;;;;84.33;58.33;;;;;0.34;63.00;100031.88;6307890;20;3652482;-45
2022/03/09 05:39:27;;;;;;;;;83.33;62.00;;;;;0.46;63.13;100043.13;6306769;20;2886845;-46
2022/03/09 05:41:56;;;;;;;;;83.00;62.00;;;;;0.40;63.51;100037.06;6309755;20;3521695;-49
2022/03/09 05:44:24;;;;;;;;;78.50;59.00;;;;;0.88;60.77;100042.47;6301745;20;2500268;-51
2022/03/09 05:46:52;;;;;;;;;72.00;54.50;;;;;1.05;59.65;100036.91;6273629;20;2495070;-48
2022/03/09 05:49:20;;;;;;;;;59.50;45.00;;;;;0.85;60.15;100045.16;6272595;20;2473325;-45
2022/03/09 05:51:52;;;;;;;;;66.00;47.50;;;;;1.36;58.50;100046.94;6276450;20;2866921;-46
2022/03/09 05:54:20;;;;;;;;;68.00;47.50;;;;;1.34;58.36;100048.72;6272332;20;2491957;-46
2022/03/09 05:56:48;;;;;;;;;75.00;55.00;;;;;1.45;58.52;100060.00;6272805;20;2502325;-46
2022/03/09 05:59:18;;;;;;;;;101.33;70.00;;;;;0.98;59.74;100064.34;6275251;20;3682734;-45
2022/03/09 06:01:47;;;;;;;;;84.00;63.00;;;;;1.45;59.29;100067.03;6275380;20;2889855;-45
2022/03/09 06:04:16;;;;;;;;;55.00;43.00;;;;;1.63;57.37;100071.13;6277670;20;2862787;-46
2022/03/09 06:06:45;;;;;;;;;56.00;44.00;;;;;1.51;57.91;100067.81;6275385;20;2878648;-46
2022/03/09 06:09:14;;;;;;;;;58.50;43.50;;;;;1.64;57.93;100067.59;6275745;20;2887768;-46
2022/03/09 06:11:43;;;;;;;;;52.00;41.00;;;;;2.07;56.20;100070.25;6274461;20;3632555;-45
2022/03/09 06:14:12;;;;;;;;;47.50;39.00;;;;;1.85;56.49;100075.13;6308134;20;2868072;-49
2022/03/09 06:16:42;;;;;;;;;92.00;67.00;;;;;2.17;55.75;100081.53;6276147;20;3530467;-45
2022/03/09 06:19:11;;;;;;;;;88.00;65.00;;;;;1.95;56.15;100079.31;6303474;20;2887898;-45
2022/03/09 06:21:41;;;;;;;;;57.33;43.00;;;;;2.53;54.53;100077.22;6308185;20;3631491;-48
2022/03/09 06:24:16;;;;;;;;;55.67;45.00;;;;;2.75;53.67;100082.88;6309805;20;2866138;-49
2022/03/09 06:26:46;;;;;;;;;43.33;39.00;;;;;2.51;53.74;100073.72;6308787;20;2876443;-48
2022/03/09 06:29:16;;;;;;;;;60.67;44.33;;;;;2.88;53.43;100083.47;6308340;20;3636689;-46
2022/03/09 06:31:45;;;;;;;;;52.00;45.00;;;;;3.11;52.91;100088.22;6304534;20;2855513;-49
2022/03/09 06:34:14;;;;;;;;;51.50;44.00;;;;;3.18;52.42;100084.50;6275062;20;2873168;-46
2022/03/09 06:36:44;;;;;;;;;46.50;35.00;;;;;2.92;52.72;100089.56;6272553;20;2508604;-47
2022/03/09 06:39:16;;;;;;;;;55.00;41.33;;;;;3.31;53.11;100093.03;6275023;20;2874264;-47
2022/03/09 06:41:46;;;;;;;;;43.67;38.67;;;;;3.61;51.46;100091.38;6308780;20;2871165;-46
2022/03/09 06:44:17;;;;;;;;;57.33;41.67;;;;;3.85;51.02;100094.28;6303397;20;2869033;-48
2022/03/09 06:46:46;;;;;;;;;62.00;47.00;;;;;3.68;51.65;100100.91;6307246;20;2862782;-51
2022/03/09 06:49:14;;;;;;;;;58.00;45.00;;;;;3.74;51.58;100106.06;6279892;20;2874613;-47
2022/03/09 06:51:43;;;;;;;;;51.50;43.50;;;;;3.70;51.85;100101.72;6281925;20;2874235;-45
2022/03/09 06:54:12;;;;;;;;;62.50;45.00;;;;;3.13;52.32;100099.66;6280865;20;2856589;-45
2022/03/09 06:56:41;;;;;;;;;48.00;38.50;;;;;3.48;51.91;100112.06;6283571;20;2871112;-48
2022/03/09 06:59:10;;;;;;;;;57.33;43.67;;;;;3.65;51.05;100103.63;6279086;20;2866916;-45
2022/03/09 07:01:39;;;;;;;;;50.00;42.00;;;;;3.83;50.59;100106.72;6312337;20;2877412;-47
2022/03/09 07:04:09;;;;;;;;;66.00;49.00;;;;;3.85;50.38;100105.75;6281235;20;2877385;-49
2022/03/09 07:06:38;;;;;;;;;43.00;34.33;;;;;3.87;50.01;100098.63;6282197;20;3609979;-51
2022/03/09 07:09:07;;;;;;;;;54.00;44.50;;;;;4.17;49.79;100094.22;6309903;20;2870051;-50
2022/03/09 07:11:37;;;;;;;;;27.50;25.00;;;;;3.96;49.99;100081.56;6278430;20;2833705;-50
2022/03/09 07:14:05;;;;;;;;;31.00;29.00;;;;;4.06;49.64;100088.34;6280107;20;2500309;-54
2022/03/09 07:16:34;;;;;;;;;42.00;34.00;;;;;4.76;47.91;100100.44;6277579;20;2873159;-55
2022/03/09 07:19:04;;;;;;;;;43.33;37.00;;;;;5.74;45.51;100083.91;6279022;20;2873262;-55
2022/03/09 07:21:32;;;;;;;;;34.00;27.00;;;;;5.58;46.22;100074.69;6307108;20;2500282;-52
2022/03/09 07:24:01;;;;;;;;;32.50;30.00;;;;;6.17;44.70;100087.72;6281865;20;2850438;-51
2022/03/09 07:26:31;;;;;;;;;43.67;34.00;;;;;6.48;44.35;100081.22;6281704;20;2871239;-53
2022/03/09 07:28:58;;;;;;;;;34.00;25.00;;;;;5.91;45.00;100086.81;6312413;20;2500402;-53
2022/03/09 07:31:26;;;;;;;;;33.00;23.50;;;;;5.68;46.13;100087.63;6278845;20;2500248;-45
2022/03/09 07:33:58;;;;;;;;;29.00;28.00;;;;;5.48;45.54;100091.00;6282582;20;2842959;-46
2022/03/09 07:36:26;;;;;;;;;30.50;25.50;;;;;5.88;45.70;100084.28;6285203;20;2852338;-45
2022/03/09 07:38:55;;;;;;;;;31.00;26.50;;;;;5.95;44.66;100084.97;6283390;20;2854406;-44
2022/03/09 07:41:40;;;;;;;;;33.50;26.00;;;;;5.85;44.19;100081.72;6281633;20;2842953;-44
2022/03/09 07:44:08;;;;;;;;;31.50;22.00;;;;;5.81;46.11;100081.88;6276428;20;2491932;-45
2022/03/09 07:46:37;;;;;;;;;23.00;20.67;;;;;5.88;43.62;100084.28;6284103;20;3560717;-45
2022/03/09 07:49:05;;;;;;;;;23.50;17.50;;;;;5.69;43.65;100078.72;6314584;20;2833648;-52
2022/03/09 07:51:34;;;;;;;;;20.33;19.00;;;;;6.07;44.00;100088.97;6279118;20;3548242;-53
2022/03/09 07:54:03;;;;;;;;;22.00;16.00;;;;;5.97;44.17;100082.22;6315795;20;2836806;-51
2022/03/09 07:56:32;;;;;;;;;21.67;21.00;;;;;6.12;43.05;100081.69;6280832;20;3559675;-53
2022/03/09 07:59:02;;;;;;;;;22.00;20.00;;;;;6.32;42.30;100084.47;6279217;20;3555480;-52
2022/03/09 08:01:31;;;;;;;;;25.50;20.50;;;;;6.44;42.34;100079.59;6285945;20;2823341;-48
2022/03/09 08:03:59;;;;;;;;;21.00;20.00;;;;;6.64;41.73;100073.50;6283732;20;2500257;-52
2022/03/09 08:06:27;;;;;;;;;23.67;19.00;;;;;6.96;41.63;100073.06;6282889;20;3570419;-52
2022/03/09 08:08:56;;;;;;;;;19.67;18.33;;;;;7.08;41.21;100066.34;6282081;20;3547088;-57
2022/03/09 08:11:25;;;;;;;;;20.00;18.00;;;;;6.89;41.32;100074.25;6282655;20;3554392;-53
2022/03/09 08:13:54;;;;;;;;;21.50;20.50;;;;;7.17;40.92;100075.81;6283121;20;2824276;-53
2022/03/09 08:16:21;;;;;;;;;26.50;22.50;;;;;6.79;41.63;100072.88;6284907;20;2837776;-51
2022/03/09 08:18:50;;;;;;;;;28.33;20.67;;;;;6.63;41.88;100069.94;6282216;20;3578385;-54
2022/03/09 08:21:18;;;;;;;;;26.50;23.00;;;;;6.57;41.43;100063.03;6280739;20;2498187;-54
2022/03/09 08:23:47;;;;;;;;;31.50;25.00;;;;;6.29;41.66;100079.25;6284178;20;2861437;-51
2022/03/09 08:26:15;;;;;;;;;32.00;25.00;;;;;6.68;41.69;100069.75;6284502;20;2854424;-55
2022/03/09 08:28:44;;;;;;;;;22.00;21.00;;;;;6.34;42.16;100074.59;6284697;20;3573257;-53
2022/03/09 08:31:14;;;;;;;;;27.00;22.00;;;;;6.32;41.95;100067.59;6312337;20;2835824;-53
2022/03/09 08:33:43;;;;;;;;;30.50;26.50;;;;;6.77;41.36;100070.28;6279823;20;2852373;-52
2022/03/09 08:36:12;;;;;;;;;30.00;25.00;;;;;6.72;41.49;100060.72;6283680;20;2835725;-51
2022/03/09 08:38:40;;;;;;;;;28.00;26.00;;;;;6.52;41.68;100061.50;6280306;20;2836745;-52
2022/03/09 08:41:09;;;;;;;;;26.33;23.67;;;;;7.18;41.49;100061.50;6283815;20;3574266;-53
2022/03/09 08:43:38;;;;;;;;;27.67;22.33;;;;;7.14;42.74;100070.59;6279546;20;3579569;-56
2022/03/09 08:46:08;;;;;;;;;30.00;22.33;;;;;7.12;40.94;100059.09;6279500;20;2856678;-52
2022/03/09 08:48:39;;;;;;;;;34.50;26.00;;;;;7.09;40.50;100053.88;6312501;20;2856260;-52
2022/03/09 08:51:08;;;;;;;;;29.00;27.50;;;;;7.23;40.72;100071.06;6281530;20;2847148;-53
2022/03/09 08:53:38;;;;;;;;;31.50;27.50;;;;;7.24;40.15;100062.13;6283681;20;2830456;-53
2022/03/09 08:56:08;;;;;;;;;39.33;26.67;;;;;7.28;40.70;100053.97;6281708;20;2883711;-54
2022/03/09 08:58:37;;;;;;;;;32.50;24.00;;;;;7.45;40.56;100062.13;6307825;20;2498168;-55
2022/03/09 09:01:06;;;;;;;;;28.00;25.00;;;;;7.57;40.39;100056.28;6280870;20;2848265;-55
2022/03/09 09:03:44;;;;;;;;;20.67;17.33;;;;;7.85;40.12;100055.06;6282699;20;3545109;-54
2022/03/09 09:06:14;;;;;;;;;31.67;27.67;;;;;7.60;40.09;100053.47;6312884;20;2858615;-52
2022/03/09 09:08:43;;;;;;;;;30.00;26.50;;;;;7.88;40.21;100046.91;6312905;20;2846126;-56
2022/03/09 09:11:12;;;;;;;;;38.33;34.67;;;;;8.38;39.38;100054.44;6278645;20;2871238;-56
2022/03/09 09:13:42;;;;;;;;;51.67;37.67;;;;;8.11;39.49;100046.75;6314195;20;3605442;-54
2022/03/09 09:16:12;;;;;;;;;63.33;47.00;;;;;7.98;40.81;100050.03;6310452;20;3627454;-54
2022/03/09 09:18:43;;;;;;;;;31.50;28.50;;;;;8.14;40.45;100045.75;6310885;20;2500291;-54
2022/03/09 09:21:12;;;;;;;;;30.00;25.00;;;;;8.16;40.11;100042.97;6279579;20;2853474;-53
2022/03/09 09:23:42;;;;;;;;;28.50;22.00;;;;;8.28;40.61;100045.09;6280621;20;2850346;-53
2022/03/09 09:26:15;;;;;;;;;27.33;22.00;;;;;8.77;40.55;100042.81;6281565;20;3573193;-53
2022/03/09 09:29:04;;;;;;;;;26.00;20.50;;;;;8.69;40.93;100039.63;6278703;20;2840992;-54
2022/03/09 09:31:34;;;;;;;;;50.33;38.00;;;;;8.62;41.13;100041.72;6278707;20;3602361;-53
2022/03/09 09:34:02;;;;;;;;;26.50;18.00;;;;;8.36;41.02;100045.59;6308839;20;2500332;-55
2022/03/09 09:36:32;;;;;;;;;35.33;30.33;;;;;8.51;41.40;100042.25;6282451;20;2865004;-54
2022/03/09 09:39:02;;;;;;;;;27.00;27.00;;;;;8.65;41.49;100046.94;6310257;20;2852361;-54
2022/03/09 09:41:33;;;;;;;;;29.50;27.50;;;;;8.61;41.06;100041.78;6277240;20;2843119;-54
2022/03/09 09:44:05;;;;;;;;;27.50;24.00;;;;;8.99;41.68;100038.13;6281632;20;2842053;-53
2022/03/09 09:46:35;;;;;;;;;22.00;18.00;;;;;9.26;41.07;100045.72;6281573;20;2841960;-55
2022/03/09 09:49:03;;;;;;;;;29.00;28.00;;;;;8.82;40.66;100043.47;6280743;20;2842202;-44
2022/03/09 09:51:37;;;;;;;;;35.33;29.00;;;;;8.98;40.82;100044.44;6277580;20;2863866;-47
2022/03/09 09:54:07;;;;;;;;;18.00;14.33;;;;;8.93;40.77;100041.13;6312290;20;3550264;-45
2022/03/09 09:56:40;;;;;;;;;28.50;21.50;;;;;9.31;40.16;100051.72;6311187;20;2852385;-48
2022/03/09 09:59:10;;;;;;;;;27.50;24.00;;;;;9.14;40.85;100051.72;6278635;20;2849221;-48
2022/03/09 10:01:41;;;;;;;;;29.00;23.00;;;;;9.92;39.58;100049.50;6281363;20;2850393;-45
2022/03/09 10:04:09;;;;;;;;;21.50;19.50;;;;;9.35;40.50;100052.47;6278743;20;2496087;-46
2022/03/09 10:06:38;;;;;;;;;28.00;20.00;;;;;9.36;39.60;100052.34;6279890;20;2839842;-50
2022/03/09 10:09:09;;;;;;;;;26.00;23.00;;;;;9.61;39.20;100051.09;6276376;20;2500303;-50
2022/03/09 10:11:55;;;;;;;;;25.00;21.00;;;;;9.26;40.13;100048.41;6278887;20;2852351;-49
2022/03/09 10:14:48;;;;;;;;;22.00;16.00;;;;;9.14;39.89;100054.41;6281181;20;3563845;-47
2022/03/09 10:17:32;;;;;;;;;20.00;18.33;;;;;9.18;39.63;100050.59;6280967;20;3564805;-52
2022/03/09 10:20:13;;;;;;;;;22.67;19.00;;;;;8.99;40.75;100043.47;6277000;20;3550354;-46
2022/03/09 10:22:45;;;;;;;;;25.67;21.00;;;;;9.71;39.47;100044.31;6268331;20;3584586;-48
2022/03/09 10:25:23;;;;;;;;;42.00;35.33;;;;;9.47;39.33;100042.91;6173358;20;2485682;-46
2022/03/09 10:27:55;;;;;;;;;22.00;18.50;;;;;9.70;40.87;100042.59;6311786;20;2826294;-48
2022/03/09 10:30:35;;;;;;;;;20.00;18.00;;;;;9.64;39.59;100034.88;6251679;20;2509883;-49
2022/03/09 10:33:10;;;;;;;;;28.00;21.00;;;;;10.12;39.63;100027.84;6273803;20;2491956;-47
2022/03/09 10:35:49;;;;;;;;;23.33;16.00;;;;;9.83;39.37;100032.09;6278920;20;3562720;-48
2022/03/09 10:38:17;;;;;;;;;18.50;15.00;;;;;10.17;39.90;100028.47;6280054;20;2817123;-47
2022/03/09 10:40:55;;;;;;;;;17.50;17.50;;;;;9.82;39.63;100015.13;6279533;20;2828813;-49
2022/03/09 10:43:29;;;;;;;;;23.50;20.00;;;;;10.53;38.74;100020.22;6278932;20;2845081;-46
2022/03/09 10:46:13;;;;;;;;;23.00;21.50;;;;;9.91;39.61;100010.22;6277482;20;2492023;-52
2022/03/09 10:49:01;;;;;;;;;18.50;15.00;;;;;10.52;38.88;100006.88;6280336;20;2813782;-51
2022/03/09 10:51:33;;;;;;;;;21.50;21.50;;;;;10.78;38.33;100008.09;6277512;20;2491907;-51
2022/03/09 10:54:08;;;;;;;;;21.33;18.00;;;;;10.80;38.37;99997.28;6279275;20;3561673;-47
2022/03/09 10:56:38;;;;;;;;;18.50;18.50;;;;;11.05;37.68;99996.69;6283762;20;2500266;-48
2022/03/09 10:59:24;;;;;;;;;22.00;18.00;;;;;10.92;37.49;99991.16;6280580;20;2542939;-52
2022/03/09 11:02:08;;;;;;;;;22.00;20.33;;;;;10.75;37.82;99992.16;6280868;20;3571134;-47
2022/03/09 11:04:39;;;;;;;;;28.00;17.00;;;;;10.80;37.92;99991.91;6283265;20;3583638;-49
2022/03/09 11:07:09;;;;;;;;;23.50;20.00;;;;;10.23;38.71;99987.00;6281211;20;2846488;-50
2022/03/09 11:09:41;;;;;;;;;26.50;22.00;;;;;10.61;38.42;99984.00;6280696;20;2496115;-47
2022/03/09 11:12:10;;;;;;;;;25.00;19.50;;;;;10.09;38.70;99988.63;6280381;20;2500228;-47
2022/03/09 11:14:39;;;;;;;;;27.50;20.50;;;;;10.86;37.65;99986.16;6282473;20;2834608;-45